Time;durP1;ratioP1;P1;durP2;ratioP2;P2;SDS_P1;SDS_P2;PMS_P1;PMS_P2;Temp;Humidity;BMP_temperature;BMP_pressure;BME280_temperature;BME280_humidity;BME280_pressure;Samples;Min_cycle;Max_cycle;Signal;HPM_P1;HPM_P2
2022/07/15 00:02:10;;;;;;;3.70;1.27;;;;;;;;;;5090852;28;20767;-18
2022/07/15 00:04:39;;;;;;;2.80;1.10;;;;;;;;;;5091086;28;20675;-18
2022/07/15 00:07:07;;;;;;;5.18;1.55;;;;;;;;;;5086538;28;20754;-18
2022/07/15 00:12:19;;;;;;;3.47;1.10;;;;;;;;;;5079086;28;20798;-18
2022/07/15 00:14:46;;;;;;;4.63;1.33;;;;;;;;;;5082503;28;20651;-18
2022/07/15 00:17:14;;;;;;;3.53;1.13;;;;;;;;;;5087712;28;20224;-18
2022/07/15 00:19:42;;;;;;;3.67;1.23;;;;;;;;;;5076953;28;20324;-18
2022/07/15 00:22:11;;;;;;;2.70;1.05;;;;;;;;;;5090245;28;20992;-18
2022/07/15 00:24:38;;;;;;;2.63;1.45;;;;;;;;;;5077565;28;20324;-18
2022/07/15 00:27:06;;;;;;;4.15;1.50;;;;;;;;;;5078853;28;20237;-18
2022/07/15 00:29:33;;;;;;;3.58;1.50;;;;;;;;;;5080380;28;20228;-18
2022/07/15 00:32:01;;;;;;;3.10;1.63;;;;;;;;;;5090632;28;20229;-18
2022/07/15 00:34:29;;;;;;;3.30;1.58;;;;;;;;;;5089062;28;20256;-18
2022/07/15 00:36:57;;;;;;;5.18;2.00;;;;;;;;;;5080349;28;20252;-18
2022/07/15 00:39:25;;;;;;;3.30;1.60;;;;;;;;;;5091699;28;20740;-18
2022/07/15 00:41:52;;;;;;;2.95;1.73;;;;;;;;;;5091727;28;20233;-18
2022/07/15 00:44:20;;;;;;;4.15;1.92;;;;;;;;;;5090055;28;20683;-18
2022/07/15 00:46:47;;;;;;;2.08;1.50;;;;;;;;;;5085028;28;20287;-18
2022/07/15 00:49:15;;;;;;;3.10;1.67;;;;;;;;;;5090188;28;20377;-18
2022/07/15 00:51:43;;;;;;;2.40;1.88;;;;;;;;;;5086873;28;20239;-18
2022/07/15 00:54:12;;;;;;;3.17;1.52;;;;;;;;;;5080553;28;20236;-18
2022/07/15 00:56:41;;;;;;;3.65;1.85;;;;;;;;;;5090858;28;20312;-18
2022/07/15 00:59:08;;;;;;;2.20;1.60;;;;;;;;;;5090838;28;20446;-18
2022/07/15 01:01:35;;;;;;;6.20;2.15;;;;;;;;;;5091408;28;20229;-18
2022/07/15 01:04:03;;;;;;;4.32;1.85;;;;;;;;;;5091123;28;20609;-18
2022/07/15 01:06:31;;;;;;;4.88;2.30;;;;;;;;;;5073092;28;20632;-18
2022/07/15 01:08:59;;;;;;;2.50;1.95;;;;;;;;;;5077207;28;20688;-18
2022/07/15 01:11:30;;;;;;;4.55;2.20;;;;;;;;;;5075952;28;20260;-18
2022/07/15 01:13:57;;;;;;;3.30;2.13;;;;;;;;;;5080774;28;20319;-18
2022/07/15 01:16:25;;;;;;;4.30;2.00;;;;;;;;;;5089525;28;20228;-18
2022/07/15 01:18:52;;;;;;;3.70;1.95;;;;;;;;;;5085458;28;20236;-18
2022/07/15 01:21:21;;;;;;;2.85;1.70;;;;;;;;;;5083411;28;20229;-18
2022/07/15 01:23:49;;;;;;;4.28;1.92;;;;;;;;;;5088595;28;20232;-18
2022/07/15 01:26:17;;;;;;;3.40;1.95;;;;;;;;;;5081579;28;20265;-18
2022/07/15 01:28:44;;;;;;;3.20;1.95;;;;;;;;;;5095102;28;20259;-18
2022/07/15 01:31:12;;;;;;;2.72;1.63;;;;;;;;;;5083723;28;21157;-18
2022/07/15 01:33:40;;;;;;;3.33;1.80;;;;;;;;;;5089766;28;20231;-18
2022/07/15 01:36:08;;;;;;;2.40;1.77;;;;;;;;;;5076136;28;21534;-18
2022/07/15 01:38:36;;;;;;;2.88;1.80;;;;;;;;;;5090261;28;20235;-18
2022/07/15 01:41:15;;;;;;;3.50;2.05;;;;;;;;;;5087459;28;20235;-18
2022/07/15 01:43:42;;;;;;;4.03;1.83;;;;;;;;;;5094256;28;20225;-18
2022/07/15 01:46:10;;;;;;;3.25;2.10;;;;;;;;;;5094007;28;20236;-18
2022/07/15 01:51:34;;;;;;;3.03;1.98;;;;;;;;;;5049745;28;20230;-18
2022/07/15 01:54:03;;;;;;;4.70;1.70;;;;;;;;;;5083488;28;20621;-18
2022/07/15 01:56:30;;;;;;;3.92;1.92;;;;;;;;;;5093902;28;20225;-18
2022/07/15 01:58:58;;;;;;;3.03;1.90;;;;;;;;;;5087334;28;20240;-18
2022/07/15 02:01:25;;;;;;;4.90;1.60;;;;;;;;;;5090459;28;20233;-18
2022/07/15 02:03:53;;;;;;;3.85;2.10;;;;;;;;;;5092609;28;20229;-18
2022/07/15 02:06:20;;;;;;;2.83;1.70;;;;;;;;;;5093638;28;20332;-18
2022/07/15 02:08:48;;;;;;;3.80;1.70;;;;;;;;;;5092410;28;20314;-18
2022/07/15 02:11:16;;;;;;;3.20;1.42;;;;;;;;;;5093456;28;20257;-18
2022/07/15 02:13:44;;;;;;;2.90;1.75;;;;;;;;;;5078850;28;20229;-18
2022/07/15 02:16:11;;;;;;;2.53;1.20;;;;;;;;;;5093488;28;20279;-18
2022/07/15 02:18:39;;;;;;;4.38;1.90;;;;;;;;;;5088247;28;20234;-18
2022/07/15 02:21:06;;;;;;;3.92;1.70;;;;;;;;;;5097263;22;20239;-20
2022/07/15 02:23:34;;;;;;;3.78;1.83;;;;;;;;;;5090177;28;20228;-20
2022/07/15 02:26:01;;;;;;;4.75;1.73;;;;;;;;;;5084245;28;20236;-20
2022/07/15 02:28:31;;;;;;;2.70;1.50;;;;;;;;;;5087851;28;20236;-20
2022/07/15 02:30:58;;;;;;;3.08;1.50;;;;;;;;;;5087436;28;20239;-20
2022/07/15 02:33:26;;;;;;;3.45;1.55;;;;;;;;;;5085566;28;20237;-20
2022/07/15 02:35:53;;;;;;;2.80;1.45;;;;;;;;;;5079429;28;20224;-20
2022/07/15 02:38:22;;;;;;;3.55;1.67;;;;;;;;;;5083781;28;20229;-19
2022/07/15 02:40:49;;;;;;;2.78;1.30;;;;;;;;;;5093729;28;20235;-20
2022/07/15 02:43:17;;;;;;;2.70;1.60;;;;;;;;;;5093123;28;20235;-20
2022/07/15 02:45:46;;;;;;;2.90;1.70;;;;;;;;;;5092734;28;20331;-20
2022/07/15 02:48:15;;;;;;;3.72;1.60;;;;;;;;;;5090701;28;20236;-20
2022/07/15 02:50:42;;;;;;;1.80;1.20;;;;;;;;;;5087048;28;20952;-19
2022/07/15 02:53:09;;;;;;;2.92;1.30;;;;;;;;;;5092194;28;20233;-20
2022/07/15 02:55:37;;;;;;;2.88;1.60;;;;;;;;;;5092851;28;20225;-20
2022/07/15 02:58:04;;;;;;;2.38;1.17;;;;;;;;;;5092137;28;20294;-20
2022/07/15 03:00:32;;;;;;;1.30;1.02;;;;;;;;;;5092761;28;20228;-20
2022/07/15 03:03:01;;;;;;;3.47;1.27;;;;;;;;;;5092250;28;20224;-20
2022/07/15 03:05:29;;;;;;;2.25;1.20;;;;;;;;;;5092615;28;20941;-20
2022/07/15 03:07:56;;;;;;;4.13;1.50;;;;;;;;;;5091828;28;20239;-20
2022/07/15 03:10:23;;;;;;;4.25;1.65;;;;;;;;;;5091816;28;20233;-20
2022/07/15 03:12:51;;;;;;;2.45;1.25;;;;;;;;;;5092679;28;20229;-20
2022/07/15 03:15:18;;;;;;;2.78;1.35;;;;;;;;;;5092481;28;20291;-20
2022/07/15 03:17:45;;;;;;;1.80;0.90;;;;;;;;;;5092941;28;20707;-20
2022/07/15 03:20:14;;;;;;;1.73;1.20;;;;;;;;;;5091504;28;20233;-20
2022/07/15 03:22:41;;;;;;;3.17;0.90;;;;;;;;;;5092572;28;20236;-21
2022/07/15 03:25:09;;;;;;;1.70;1.25;;;;;;;;;;5092480;28;20233;-20
2022/07/15 03:27:36;;;;;;;1.65;0.77;;;;;;;;;;5091692;28;21107;-20
2022/07/15 03:30:04;;;;;;;2.75;1.20;;;;;;;;;;5088209;28;20227;-20
2022/07/15 03:32:32;;;;;;;3.92;1.33;;;;;;;;;;5092031;28;20232;-20
2022/07/15 03:35:00;;;;;;;2.78;1.02;;;;;;;;;;5092357;28;20679;-21
2022/07/15 03:37:28;;;;;;;2.90;1.30;;;;;;;;;;5091801;28;20707;-21
2022/07/15 03:39:56;;;;;;;2.70;1.17;;;;;;;;;;5092620;28;20589;-20
2022/07/15 03:42:23;;;;;;;3.40;1.05;;;;;;;;;;5091358;28;20980;-19
2022/07/15 03:44:50;;;;;;;3.08;1.38;;;;;;;;;;5092232;28;20240;-20
2022/07/15 03:47:19;;;;;;;3.90;1.20;;;;;;;;;;5077703;28;20730;-20
2022/07/15 03:49:46;;;;;;;1.90;1.13;;;;;;;;;;5091966;28;20224;-20
2022/07/15 03:52:13;;;;;;;4.30;1.23;;;;;;;;;;5091314;28;20321;-20
2022/07/15 03:54:42;;;;;;;3.38;0.95;;;;;;;;;;5091842;28;20233;-20
2022/07/15 03:57:09;;;;;;;2.75;1.20;;;;;;;;;;5081604;28;20259;-20
2022/07/15 03:59:37;;;;;;;3.03;1.30;;;;;;;;;;5091959;28;20236;-20
2022/07/15 04:02:04;;;;;;;2.47;1.10;;;;;;;;;;5091022;28;20758;-20
2022/07/15 04:04:32;;;;;;;3.30;1.10;;;;;;;;;;5090687;28;20232;-20
2022/07/15 04:07:00;;;;;;;4.05;1.67;;;;;;;;;;5091064;28;20745;-20
2022/07/15 04:09:27;;;;;;;3.08;1.15;;;;;;;;;;5088738;28;20229;-20
2022/07/15 04:11:56;;;;;;;6.60;1.30;;;;;;;;;;5091250;28;20236;-20
2022/07/15 04:14:23;;;;;;;1.77;1.00;;;;;;;;;;5090470;28;20327;-20
2022/07/15 04:16:50;;;;;;;4.63;1.50;;;;;;;;;;5086790;28;20220;-20
2022/07/15 04:19:18;;;;;;;4.63;1.38;;;;;;;;;;5087252;28;20229;-20
2022/07/15 04:21:46;;;;;;;5.13;1.63;;;;;;;;;;5082193;28;20332;-20
2022/07/15 04:24:13;;;;;;;2.63;1.10;;;;;;;;;;5090002;28;20240;-20
2022/07/15 04:26:49;;;;;;;3.85;1.33;;;;;;;;;;5079713;28;20719;-20
2022/07/15 04:29:17;;;;;;;3.30;1.10;;;;;;;;;;5081943;28;20238;-20
2022/07/15 04:31:45;;;;;;;3.00;1.13;;;;;;;;;;5088548;28;20239;-20
2022/07/15 04:34:12;;;;;;;2.38;1.20;;;;;;;;;;5091112;28;20263;-20
2022/07/15 04:36:40;;;;;;;2.55;1.02;;;;;;;;;;5085561;28;20225;-20
2022/07/15 04:39:07;;;;;;;2.63;1.30;;;;;;;;;;5091207;28;20235;-20
2022/07/15 04:41:35;;;;;;;3.15;1.25;;;;;;;;;;5090846;28;20243;-20
2022/07/15 04:44:02;;;;;;;2.55;1.20;;;;;;;;;;5091044;28;20240;-20
2022/07/15 04:46:31;;;;;;;3.10;1.25;;;;;;;;;;5090005;28;20235;-20
2022/07/15 04:51:43;;;;;;;4.00;1.10;;;;;;;;;;5087023;28;20233;-20
2022/07/15 04:54:10;;;;;;;3.42;1.15;;;;;;;;;;5087551;28;20739;-20
2022/07/15 04:56:38;;;;;;;2.90;1.13;;;;;;;;;;5086928;28;20228;-20
2022/07/15 04:59:05;;;;;;;3.08;1.10;;;;;;;;;;5086847;28;20233;-20
2022/07/15 05:01:34;;;;;;;1.90;1.00;;;;;;;;;;5084547;28;20229;-20
2022/07/15 05:04:02;;;;;;;3.17;1.17;;;;;;;;;;5087693;28;20777;-20
2022/07/15 05:06:29;;;;;;;3.25;1.20;;;;;;;;;;5089815;28;20229;-19
2022/07/15 05:08:57;;;;;;;1.92;0.90;;;;;;;;;;5090429;28;20232;-20
2022/07/15 05:11:24;;;;;;;2.38;1.55;;;;;;;;;;5089825;28;20233;-20
2022/07/15 05:13:53;;;;;;;2.90;1.10;;;;;;;;;;5089463;28;20233;-20
2022/07/15 05:16:21;;;;;;;4.35;1.15;;;;;;;;;;5086675;28;20991;-20
2022/07/15 05:18:49;;;;;;;3.75;1.30;;;;;;;;;;5086851;28;20236;-20
2022/07/15 05:21:17;;;;;;;2.78;1.20;;;;;;;;;;5087646;28;20252;-20
2022/07/15 05:23:51;;;;;;;2.47;1.27;;;;;;;;;;5090306;28;20228;-20
2022/07/15 05:26:39;;;;;;;7.53;1.30;;;;;;;;;;5079576;28;20235;-20
2022/07/15 05:29:11;;;;;;;2.50;1.10;;;;;;;;;;5086004;28;20336;-20
2022/07/15 05:31:39;;;;;;;2.13;0.93;;;;;;;;;;5083519;28;20241;-21
2022/07/15 05:34:08;;;;;;;2.60;0.93;;;;;;;;;;5090617;28;20328;-21
2022/07/15 05:36:35;;;;;;;3.47;1.17;;;;;;;;;;5088879;28;20227;-21
2022/07/15 05:39:02;;;;;;;2.78;1.23;;;;;;;;;;5090645;28;20237;-20
2022/07/15 05:41:31;;;;;;;2.70;0.98;;;;;;;;;;5090018;28;20228;-20
2022/07/15 05:43:59;;;;;;;4.20;1.20;;;;;;;;;;5089587;28;20229;-21
2022/07/15 05:46:26;;;;;;;2.95;1.10;;;;;;;;;;5090718;28;20233;-21
2022/07/15 05:48:54;;;;;;;2.28;1.00;;;;;;;;;;5090486;28;20243;-20
2022/07/15 05:51:22;;;;;;;2.63;1.27;;;;;;;;;;5090445;28;20229;-21
2022/07/15 05:53:50;;;;;;;3.15;1.00;;;;;;;;;;5089020;28;20225;-21
2022/07/15 05:56:17;;;;;;;2.83;1.55;;;;;;;;;;5088411;28;20225;-21
2022/07/15 05:58:44;;;;;;;4.57;1.02;;;;;;;;;;5074066;28;20234;-21
2022/07/15 06:01:12;;;;;;;4.15;1.23;;;;;;;;;;5088577;28;20239;-21
2022/07/15 06:03:40;;;;;;;3.85;1.17;;;;;;;;;;5090139;28;20291;-20
2022/07/15 06:06:07;;;;;;;2.72;1.00;;;;;;;;;;5079137;28;20329;-20
2022/07/15 06:08:36;;;;;;;5.10;2.30;;;;;;;;;;5084080;28;20240;-21
2022/07/15 06:11:11;;;;;;;4.38;1.33;;;;;;;;;;5088360;28;20712;-20
2022/07/15 06:13:39;;;;;;;3.85;1.10;;;;;;;;;;5085810;28;20229;-21
2022/07/15 06:16:07;;;;;;;5.88;1.40;;;;;;;;;;5086409;28;20229;-21
2022/07/15 06:18:34;;;;;;;2.22;0.98;;;;;;;;;;5087823;28;20324;-21
2022/07/15 06:21:02;;;;;;;2.53;1.02;;;;;;;;;;5087023;28;20237;-21
2022/07/15 06:23:29;;;;;;;4.70;1.10;;;;;;;;;;5090003;28;20221;-20
2022/07/15 06:25:58;;;;;;;5.00;1.15;;;;;;;;;;5078146;28;20321;-20
2022/07/15 06:28:25;;;;;;;3.00;0.93;;;;;;;;;;5085808;28;20236;-20
2022/07/15 06:30:53;;;;;;;2.65;1.13;;;;;;;;;;5086789;28;20229;-20
2022/07/15 06:33:21;;;;;;;3.03;1.00;;;;;;;;;;5075960;28;20233;-21
2022/07/15 06:35:49;;;;;;;2.25;0.80;;;;;;;;;;5084173;28;20229;-20
2022/07/15 06:38:17;;;;;;;4.07;1.05;;;;;;;;;;5092324;28;20240;-20
2022/07/15 06:40:44;;;;;;;1.27;0.70;;;;;;;;;;5093266;28;20229;-21
2022/07/15 06:43:13;;;;;;;3.00;0.85;;;;;;;;;;5092882;28;20225;-20
2022/07/15 06:45:40;;;;;;;2.00;1.10;;;;;;;;;;5092849;28;20228;-20
2022/07/15 06:48:08;;;;;;;2.45;0.90;;;;;;;;;;5092601;28;20233;-20
2022/07/15 06:50:35;;;;;;;1.90;0.80;;;;;;;;;;5091824;28;20343;-21
2022/07/15 06:53:03;;;;;;;2.05;0.63;;;;;;;;;;5091965;28;20235;-20
2022/07/15 06:55:30;;;;;;;3.80;0.98;;;;;;;;;;5092084;28;20225;-20
2022/07/15 06:57:57;;;;;;;3.38;0.93;;;;;;;;;;5092535;28;20233;-21
2022/07/15 07:00:26;;;;;;;4.38;1.20;;;;;;;;;;5091849;28;20232;-21
2022/07/15 07:02:54;;;;;;;5.13;0.95;;;;;;;;;;5092552;28;20221;-20
2022/07/15 07:05:21;;;;;;;3.15;0.80;;;;;;;;;;5092359;28;20229;-21
2022/07/15 07:07:48;;;;;;;3.50;1.10;;;;;;;;;;5078781;28;20229;-21
2022/07/15 07:10:16;;;;;;;4.15;1.00;;;;;;;;;;5092657;28;20236;-21
2022/07/15 07:12:51;;;;;;;2.95;0.85;;;;;;;;;;5092943;28;20240;-20
2022/07/15 07:15:19;;;;;;;2.95;0.85;;;;;;;;;;5093057;28;20229;-20
2022/07/15 07:17:47;;;;;;;3.35;0.93;;;;;;;;;;5092096;28;20229;-20
2022/07/15 07:20:15;;;;;;;4.40;0.95;;;;;;;;;;5092060;28;20232;-20
2022/07/15 07:22:42;;;;;;;3.60;0.85;;;;;;;;;;5091353;28;20777;-20
2022/07/15 07:25:09;;;;;;;3.80;0.85;;;;;;;;;;5092713;28;20250;-20
2022/07/15 07:27:37;;;;;;;3.55;0.65;;;;;;;;;;5092733;28;21005;-20
2022/07/15 07:30:05;;;;;;;2.22;0.80;;;;;;;;;;5092409;28;20228;-20
2022/07/15 07:32:32;;;;;;;3.17;0.80;;;;;;;;;;5085180;28;21255;-20
2022/07/15 07:35:08;;;;;;;3.90;0.70;;;;;;;;;;5080716;28;20244;-20
2022/07/15 07:37:36;;;;;;;3.42;0.80;;;;;;;;;;5092433;28;21087;-20
2022/07/15 07:40:04;;;;;;;2.30;0.80;;;;;;;;;;5092500;28;20311;-20
2022/07/15 07:42:32;;;;;;;3.45;0.60;;;;;;;;;;5092652;28;20243;-20
2022/07/15 07:45:01;;;;;;;5.05;1.20;;;;;;;;;;5091344;28;20239;-20
2022/07/15 07:47:28;;;;;;;3.15;0.60;;;;;;;;;;5093042;28;20229;-20
2022/07/15 07:49:55;;;;;;;2.88;0.90;;;;;;;;;;5089074;28;20236;-20
2022/07/15 07:52:24;;;;;;;10.35;0.88;;;;;;;;;;5083762;28;20263;-20
2022/07/15 07:54:54;;;;;;;9.88;0.82;;;;;;;;;;5086642;28;20229;-20
2022/07/15 07:57:21;;;;;;;3.67;0.90;;;;;;;;;;5089503;28;20240;-20
2022/07/15 07:59:49;;;;;;;2.70;0.77;;;;;;;;;;5091278;28;20237;-20
2022/07/15 08:02:21;;;;;;;2.35;0.63;;;;;;;;;;5088815;28;20700;-20
2022/07/15 08:04:48;;;;;;;3.00;0.70;;;;;;;;;;5079983;28;20615;-21
2022/07/15 08:07:16;;;;;;;1.92;0.57;;;;;;;;;;5090169;28;20679;-20
2022/07/15 08:09:45;;;;;;;3.08;0.88;;;;;;;;;;5089040;28;20615;-20
2022/07/15 08:12:12;;;;;;;2.03;0.50;;;;;;;;;;5090587;28;20657;-20
2022/07/15 08:14:39;;;;;;;2.78;0.93;;;;;;;;;;5089893;28;20711;-20
2022/07/15 08:17:07;;;;;;;2.35;0.70;;;;;;;;;;5088734;28;20731;-20
2022/07/15 08:19:34;;;;;;;0.95;0.50;;;;;;;;;;5091952;28;20502;-20
2022/07/15 08:22:02;;;;;;;3.38;0.55;;;;;;;;;;5091033;28;20890;-19
2022/07/15 08:24:30;;;;;;;55.13;2.60;;;;;;;;;;5091127;28;20324;-20
2022/07/15 08:26:58;;;;;;;2.60;0.50;;;;;;;;;;5091020;28;20228;-20
2022/07/15 08:29:26;;;;;;;3.25;0.43;;;;;;;;;;5084429;28;20718;-22
2022/07/15 08:31:53;;;;;;;4.72;0.75;;;;;;;;;;5079970;28;20636;-21
2022/07/15 08:34:20;;;;;;;4.32;0.50;;;;;;;;;;5083782;28;21018;-22
2022/07/15 08:36:48;;;;;;;1.13;0.47;;;;;;;;;;5081369;28;20448;-19
2022/07/15 08:39:15;;;;;;;2.35;0.50;;;;;;;;;;5084230;28;20234;-19
2022/07/15 08:41:43;;;;;;;2.33;0.43;;;;;;;;;;5084586;28;20786;-19
2022/07/15 08:44:11;;;;;;;4.32;0.55;;;;;;;;;;5083177;28;20233;-21
2022/07/15 08:46:39;;;;;;;3.00;0.50;;;;;;;;;;5082330;28;20232;-19
2022/07/15 08:49:08;;;;;;;3.85;0.88;;;;;;;;;;5083553;28;21116;-19
2022/07/15 08:51:38;;;;;;;3.50;0.45;;;;;;;;;;5079802;28;20241;-19
2022/07/15 08:54:05;;;;;;;2.35;0.60;;;;;;;;;;5083942;28;20229;-19
2022/07/15 08:56:33;;;;;;;2.03;0.50;;;;;;;;;;5084457;28;21319;-20
2022/07/15 08:59:01;;;;;;;2.15;0.55;;;;;;;;;;5082813;28;20245;-20
2022/07/15 09:01:30;;;;;;;1.42;0.38;;;;;;;;;;5081484;28;20232;-19
2022/07/15 09:03:58;;;;;;;0.40;0.30;;;;;;;;;;5077774;28;20307;-20
2022/07/15 09:06:32;;;;;;;1.55;0.30;;;;;;;;;;5076881;28;20225;-20
2022/07/15 09:08:59;;;;;;;2.35;0.47;;;;;;;;;;5084473;28;20688;-19
2022/07/15 09:11:29;;;;;;;1.13;0.32;;;;;;;;;;5079322;28;22739;-19
2022/07/15 09:13:58;;;;;;;2.08;0.47;;;;;;;;;;5084425;28;20229;-19
2022/07/15 09:16:26;;;;;;;1.40;0.30;;;;;;;;;;5079153;28;20323;-19
2022/07/15 09:18:56;;;;;;;3.83;0.65;;;;;;;;;;5086740;28;20286;-20
2022/07/15 09:21:25;;;;;;;2.45;0.47;;;;;;;;;;5077912;28;20247;-20
2022/07/15 09:23:53;;;;;;;1.52;0.50;;;;;;;;;;5075404;28;20248;-19
2022/07/15 09:26:29;;;;;;;2.60;0.38;;;;;;;;;;5079610;28;20254;-20
2022/07/15 09:28:57;;;;;;;1.42;0.40;;;;;;;;;;5073802;28;20237;-19
2022/07/15 09:34:15;;;;;;;0.50;0.35;;;;;;;;;;5075279;28;20228;-20
2022/07/15 09:36:43;;;;;;;2.25;0.40;;;;;;;;;;5082863;28;20569;-20
2022/07/15 09:39:10;;;;;;;2.40;0.40;;;;;;;;;;5074937;28;21738;-20
2022/07/15 09:41:38;;;;;;;3.83;0.65;;;;;;;;;;5072226;28;20225;-19
2022/07/15 09:44:06;;;;;;;1.05;0.57;;;;;;;;;;5077291;28;20331;-20
2022/07/15 09:46:41;;;;;;;1.23;0.40;;;;;;;;;;5082539;28;20284;-20
2022/07/15 09:49:08;;;;;;;0.30;0.20;;;;;;;;;;5074429;28;20327;-20
2022/07/15 09:51:44;;;;;;;3.35;0.30;;;;;;;;;;5078167;28;20368;-19
2022/07/15 09:54:12;;;;;;;1.08;0.30;;;;;;;;;;5076093;28;20236;-20
2022/07/15 09:56:39;;;;;;;1.45;0.47;;;;;;;;;;5075728;28;20239;-20
2022/07/15 09:59:07;;;;;;;3.00;0.50;;;;;;;;;;5077623;28;20427;-20
2022/07/15 10:01:34;;;;;;;1.27;0.50;;;;;;;;;;5078253;28;20225;-20
2022/07/15 10:04:02;;;;;;;1.33;0.43;;;;;;;;;;5083326;28;20233;-20
2022/07/15 10:06:29;;;;;;;2.03;0.30;;;;;;;;;;5071206;28;20412;-20
2022/07/15 10:08:58;;;;;;;1.10;0.50;;;;;;;;;;5077872;28;20233;-20
2022/07/15 10:11:25;;;;;;;0.93;0.30;;;;;;;;;;5079672;28;21338;-20
2022/07/15 10:14:06;;;;;;;1.08;0.30;;;;;;;;;;5076130;28;20320;-20
2022/07/15 10:16:57;;;;;;;2.25;0.50;;;;;;;;;;5078181;28;20244;-20
2022/07/15 10:19:27;;;;;;;0.55;0.20;;;;;;;;;;5062019;28;21058;-20
2022/07/15 10:21:57;;;;;;;1.65;0.40;;;;;;;;;;5080915;28;20245;-20
2022/07/15 10:24:35;;;;;;;1.65;0.30;;;;;;;;;;5076414;28;20815;-20
2022/07/15 10:27:06;;;;;;;1.40;0.30;;;;;;;;;;5071876;28;20237;-20
2022/07/15 10:29:33;;;;;;;1.58;0.47;;;;;;;;;;5071685;28;20710;-20
2022/07/15 10:32:02;;;;;;;1.35;0.30;;;;;;;;;;5080030;28;20237;-20
2022/07/15 10:34:30;;;;;;;0.43;0.30;;;;;;;;;;5080883;28;20237;-19
2022/07/15 10:36:58;;;;;;;1.40;0.30;;;;;;;;;;5078543;28;20243;-19
2022/07/15 10:39:27;;;;;;;0.38;0.30;;;;;;;;;;5070466;28;20236;-20
2022/07/15 10:41:57;;;;;;;1.77;0.45;;;;;;;;;;5085449;28;20679;-20
2022/07/15 10:44:24;;;;;;;1.10;0.20;;;;;;;;;;5071725;28;20755;-19
2022/07/15 10:47:10;;;;;;;0.73;0.20;;;;;;;;;;5080134;28;20237;-20
2022/07/15 10:49:38;;;;;;;0.75;0.50;;;;;;;;;;5086339;28;20511;-20
2022/07/15 10:52:13;;;;;;;1.40;0.50;;;;;;;;;;5074681;28;20506;-20
2022/07/15 10:54:42;;;;;;;1.50;0.50;;;;;;;;;;5078144;28;20236;-20
2022/07/15 10:57:12;;;;;;;1.27;0.35;;;;;;;;;;5078235;28;20379;-19
2022/07/15 10:59:41;;;;;;;1.30;0.40;;;;;;;;;;5079349;28;20707;-21
2022/07/15 11:02:12;;;;;;;0.77;0.45;;;;;;;;;;5077063;28;20263;-21
2022/07/15 11:04:41;;;;;;;1.08;0.40;;;;;;;;;;5085480;28;20244;-21
2022/07/15 11:07:28;;;;;;;3.03;0.40;;;;;;;;;;5075574;28;20421;-21
2022/07/15 11:09:56;;;;;;;5.43;0.40;;;;;;;;;;5072504;28;20237;-21
2022/07/15 11:12:25;;;;;;;3.25;0.40;;;;;;;;;;5079639;28;20331;-21
2022/07/15 11:14:53;;;;;;;0.80;0.40;;;;;;;;;;5080249;28;20610;-19
2022/07/15 11:17:22;;;;;;;1.00;0.32;;;;;;;;;;5082783;28;20240;-19
2022/07/15 11:19:50;;;;;;;0.85;0.20;;;;;;;;;;5079876;28;20236;-19
2022/07/15 11:22:18;;;;;;;1.50;0.30;;;;;;;;;;5082584;28;20249;-19
2022/07/15 11:24:45;;;;;;;1.15;0.40;;;;;;;;;;5081579;28;20244;-19
2022/07/15 11:27:13;;;;;;;3.38;0.63;;;;;;;;;;5080962;28;20235;-20
2022/07/15 11:29:42;;;;;;;2.78;0.30;;;;;;;;;;5083254;28;20225;-19
2022/07/15 11:32:09;;;;;;;0.77;0.40;;;;;;;;;;5079293;28;20256;-21
2022/07/15 11:34:39;;;;;;;1.00;0.40;;;;;;;;;;5091491;28;21052;-20
2022/07/15 11:37:06;;;;;;;2.53;0.50;;;;;;;;;;5091320;28;20229;-20
2022/07/15 11:39:34;;;;;;;1.80;0.30;;;;;;;;;;5092601;28;20325;-20
2022/07/15 11:44:48;;;;;;;0.65;0.30;;;;;;;;;;5091648;28;20355;-20
2022/07/15 11:47:15;;;;;;;1.88;0.50;;;;;;;;;;5089423;28;20896;-20
2022/07/15 11:49:43;;;;;;;1.85;0.52;;;;;;;;;;5092494;28;20233;-20
2022/07/15 11:52:11;;;;;;;2.50;0.45;;;;;;;;;;5084850;28;21009;-20
2022/07/15 11:54:39;;;;;;;3.15;0.45;;;;;;;;;;5091401;28;20235;-20
2022/07/15 11:57:07;;;;;;;1.25;0.40;;;;;;;;;;5090024;28;20268;-20
2022/07/15 11:59:35;;;;;;;0.95;0.35;;;;;;;;;;5092268;28;20225;-20
2022/07/15 12:02:04;;;;;;;1.50;0.30;;;;;;;;;;5091801;28;21013;-20
2022/07/15 12:04:31;;;;;;;2.28;0.60;;;;;;;;;;5091907;28;20792;-21
2022/07/15 12:06:59;;;;;;;1.42;0.45;;;;;;;;;;5091858;28;20276;-20
2022/07/15 12:09:26;;;;;;;2.55;0.50;;;;;;;;;;5090867;28;21026;-20
2022/07/15 12:11:54;;;;;;;0.80;0.40;;;;;;;;;;5084459;28;20321;-20
2022/07/15 12:14:21;;;;;;;1.75;0.40;;;;;;;;;;5080398;28;20239;-20
2022/07/15 12:16:49;;;;;;;1.58;0.63;;;;;;;;;;5090219;28;20238;-20
2022/07/15 12:19:19;;;;;;;0.60;0.30;;;;;;;;;;5080157;28;20225;-20
2022/07/15 12:21:47;;;;;;;2.22;0.47;;;;;;;;;;5091278;28;20275;-20
2022/07/15 12:24:16;;;;;;;1.45;0.50;;;;;;;;;;5088246;28;20272;-20
2022/07/15 12:26:44;;;;;;;1.27;0.45;;;;;;;;;;5084008;28;20849;-20
2022/07/15 12:29:12;;;;;;;1.00;0.40;;;;;;;;;;5087279;28;20256;-20
2022/07/15 12:31:39;;;;;;;1.13;0.60;;;;;;;;;;5081187;28;20237;-21
2022/07/15 12:34:07;;;;;;;0.52;0.30;;;;;;;;;;5077840;28;20241;-21
2022/07/15 12:36:37;;;;;;;1.38;0.50;;;;;;;;;;5079523;28;20229;-20
2022/07/15 12:39:06;;;;;;;1.08;0.45;;;;;;;;;;5078582;28;20235;-21
2022/07/15 12:41:34;;;;;;;3.47;0.55;;;;;;;;;;5084219;28;20236;-22
2022/07/15 12:44:02;;;;;;;1.88;0.50;;;;;;;;;;5077518;28;20240;-21
2022/07/15 12:46:49;;;;;;;3.78;0.90;;;;;;;;;;5076414;28;21096;-19
2022/07/15 12:49:31;;;;;;;3.40;0.40;;;;;;;;;;5076601;28;20236;-21
2022/07/15 12:52:00;;;;;;;4.10;0.80;;;;;;;;;;5084801;28;20593;-21
2022/07/15 12:54:28;;;;;;;3.22;0.52;;;;;;;;;;5075752;28;20237;-20
2022/07/15 12:56:55;;;;;;;0.77;0.40;;;;;;;;;;5084494;28;20235;-20
2022/07/15 12:59:22;;;;;;;15.95;0.57;;;;;;;;;;5081350;28;20241;-20
2022/07/15 13:02:01;;;;;;;3.15;0.90;;;;;;;;;;5078779;28;20386;-20
2022/07/15 13:04:29;;;;;;;3.20;0.40;;;;;;;;;;5077807;28;20319;-21
2022/07/15 13:06:56;;;;;;;1.58;0.60;;;;;;;;;;5086100;28;20419;-20
2022/07/15 13:09:25;;;;;;;5.55;1.05;;;;;;;;;;5076798;28;20229;-21
2022/07/15 13:11:57;;;;;;;2.00;0.50;;;;;;;;;;5078282;28;20237;-21
2022/07/15 13:14:25;;;;;;;1.38;0.40;;;;;;;;;;5078535;28;20689;-21
2022/07/15 13:16:52;;;;;;;7.30;1.25;;;;;;;;;;5079848;28;20229;-21
2022/07/15 13:19:19;;;;;;;1.10;0.47;;;;;;;;;;5077622;28;20697;-21
2022/07/15 13:21:47;;;;;;;3.15;0.60;;;;;;;;;;5071364;28;20245;-19
2022/07/15 13:24:14;;;;;;;3.92;0.70;;;;;;;;;;5075562;28;20918;-19
2022/07/15 13:26:43;;;;;;;1.80;0.70;;;;;;;;;;5081856;28;20987;-21
2022/07/15 13:29:10;;;;;;;4.05;0.60;;;;;;;;;;5078462;28;21045;-21
2022/07/15 13:31:38;;;;;;;5.18;0.40;;;;;;;;;;5081722;28;20232;-22
2022/07/15 13:34:06;;;;;;;3.83;0.60;;;;;;;;;;5078058;28;20240;-19
2022/07/15 13:36:34;;;;;;;5.33;0.60;;;;;;;;;;5085001;28;20431;-20
2022/07/15 13:39:01;;;;;;;6.38;0.82;;;;;;;;;;5074539;28;20443;-20
2022/07/15 13:41:29;;;;;;;1.77;0.60;;;;;;;;;;5079327;28;20237;-21
2022/07/15 13:43:57;;;;;;;3.30;0.73;;;;;;;;;;5079355;28;20229;-20
2022/07/15 13:46:25;;;;;;;2.00;0.70;;;;;;;;;;5084992;28;20800;-21
2022/07/15 13:48:52;;;;;;;3.85;0.50;;;;;;;;;;5079372;28;20684;-20
2022/07/15 13:51:24;;;;;;;2.33;0.50;;;;;;;;;;5077025;28;20233;-21
2022/07/15 13:53:52;;;;;;;2.60;0.82;;;;;;;;;;5088492;28;20255;-20
2022/07/15 13:56:19;;;;;;;4.68;1.15;;;;;;;;;;5089043;28;20225;-20
2022/07/15 13:58:48;;;;;;;1.52;0.50;;;;;;;;;;5076694;28;20268;-20
2022/07/15 14:01:17;;;;;;;2.20;0.70;;;;;;;;;;5079087;28;20244;-21
2022/07/15 14:03:44;;;;;;;1.20;0.52;;;;;;;;;;5082197;28;20616;-20
2022/07/15 14:06:12;;;;;;;1.45;0.47;;;;;;;;;;5084845;28;20332;-20
2022/07/15 14:08:39;;;;;;;1.17;0.47;;;;;;;;;;5077467;28;20802;-20
2022/07/15 14:11:07;;;;;;;3.47;0.68;;;;;;;;;;5080346;28;20226;-21
2022/07/15 14:13:34;;;;;;;4.05;0.70;;;;;;;;;;5083234;28;20326;-20
2022/07/15 14:16:02;;;;;;;1.08;0.55;;;;;;;;;;5077400;28;20313;-21
2022/07/15 14:18:50;;;;;;;4.55;0.75;;;;;;;;;;5078396;28;20232;-20
2022/07/15 14:21:19;;;;;;;3.30;0.75;;;;;;;;;;5082556;28;20387;-20
2022/07/15 14:23:46;;;;;;;2.40;0.70;;;;;;;;;;5079266;28;20233;-21
2022/07/15 14:26:13;;;;;;;2.10;0.60;;;;;;;;;;5076899;28;20240;-21
2022/07/15 14:28:42;;;;;;;2.45;0.63;;;;;;;;;;5078566;28;20243;-21
2022/07/15 14:31:12;;;;;;;1.33;0.45;;;;;;;;;;5072742;28;20277;-20
2022/07/15 14:33:41;;;;;;;2.17;0.65;;;;;;;;;;5070418;28;20730;-20
2022/07/15 14:36:09;;;;;;;2.17;0.93;;;;;;;;;;5082268;28;20315;-21
2022/07/15 14:38:38;;;;;;;2.05;0.70;;;;;;;;;;5090244;28;20239;-19
2022/07/15 14:41:05;;;;;;;2.50;0.57;;;;;;;;;;5080489;28;20234;-21
2022/07/15 14:43:33;;;;;;;1.83;0.50;;;;;;;;;;5077062;28;20235;-20
2022/07/15 14:46:00;;;;;;;2.78;0.70;;;;;;;;;;5078713;28;20273;-20
2022/07/15 14:48:28;;;;;;;1.67;0.75;;;;;;;;;;5080945;28;20972;-20
2022/07/15 14:50:56;;;;;;;1.67;0.50;;;;;;;;;;5077691;28;20226;-20
2022/07/15 14:53:24;;;;;;;2.08;0.60;;;;;;;;;;5081114;28;20241;-20
2022/07/15 14:55:51;;;;;;;2.78;0.85;;;;;;;;;;5078311;28;20708;-20
2022/07/15 14:58:19;;;;;;;2.40;0.63;;;;;;;;;;5080044;28;20934;-21
2022/07/15 15:00:48;;;;;;;0.77;0.45;;;;;;;;;;5078890;28;20233;-19
2022/07/15 15:03:23;;;;;;;2.28;0.68;;;;;;;;;;5079517;28;20224;-19
2022/07/15 15:05:50;;;;;;;1.02;0.60;;;;;;;;;;5081228;28;20233;-19